Time;durP1;ratioP1;P1;durP2;ratioP2;P2;SDS_P1;SDS_P2;PMS_P1;PMS_P2;Temp;Humidity;BMP_temperature;BMP_pressure;BME280_temperature;BME280_humidity;BME280_pressure;Samples;Min_cycle;Max_cycle;Signal;HPM_P1;HPM_P2
2022/03/25 00:01:34;;;;;;;13.00;5.15;;;;;;;11.04;22.23;94254.25;5024648;28;20312;-79
2022/03/25 00:04:00;;;;;;;12.30;4.90;;;;;;;11.04;22.45;94246.25;5024746;28;20026;-78
2022/03/25 00:06:26;;;;;;;9.63;5.07;;;;;;;11.07;22.23;94244.06;5024575;28;20033;-79
2022/03/25 00:08:52;;;;;;;12.98;5.35;;;;;;;10.98;22.14;94231.47;5024742;28;20025;-78
2022/03/25 00:11:18;;;;;;;11.93;5.38;;;;;;;10.98;22.37;94239.47;5024553;28;20125;-78
2022/03/25 00:13:43;;;;;;;12.70;4.70;;;;;;;11.00;22.39;94231.94;5024758;28;20044;-78
2022/03/25 00:16:11;;;;;;;11.35;4.85;;;;;;;11.00;22.34;94223.94;5024450;28;20021;-78
2022/03/25 00:18:36;;;;;;;10.40;4.93;;;;;;;11.03;22.82;94223.34;5023718;28;20022;-79
2022/03/25 00:21:02;;;;;;;13.73;5.28;;;;;;;11.00;22.49;94223.94;5024516;28;20343;-77
2022/03/25 00:23:27;;;;;;;10.85;4.85;;;;;;;10.97;22.35;94223.75;5024383;28;20080;-78
2022/03/25 00:25:53;;;;;;;10.45;5.22;;;;;;;10.99;22.50;94227.72;5024317;28;20161;-78
2022/03/25 00:28:20;;;;;;;12.52;4.78;;;;;;;10.97;22.71;94224.56;5024149;28;20346;-77
2022/03/25 00:30:46;;;;;;;12.32;4.80;;;;;;;11.02;22.67;94216.41;5024356;28;20152;-78
2022/03/25 00:33:12;;;;;;;13.70;4.93;;;;;;;10.99;22.45;94217.03;5024341;28;20034;-78
2022/03/25 00:35:38;;;;;;;14.30;6.00;;;;;;;10.96;22.80;94209.63;5024303;28;20052;-78
2022/03/25 00:38:04;;;;;;;15.43;4.72;;;;;;;10.90;22.63;94213.53;5024132;28;20022;-77
2022/03/25 00:40:29;;;;;;;14.23;4.85;;;;;;;10.92;22.69;94211.34;5024210;28;20328;-77
2022/03/25 00:42:55;;;;;;;14.25;6.80;;;;;;;10.85;22.83;94200.34;5024020;28;20260;-77
2022/03/25 00:45:21;;;;;;;9.75;4.70;;;;;;;10.88;22.67;94212.28;5024073;28;20042;-77
2022/03/25 00:47:46;;;;;;;11.85;5.68;;;;;;;10.86;22.70;94198.47;5024021;28;20336;-77
2022/03/25 00:50:12;;;;;;;7.43;4.55;;;;;;;10.87;22.59;94192.81;5024005;28;20068;-78
2022/03/25 00:52:38;;;;;;;8.48;4.55;;;;;;;10.89;22.63;94197.81;5023554;28;20064;-79
2022/03/25 00:55:05;;;;;;;8.80;5.07;;;;;;;10.85;22.68;94208.34;5024003;28;20044;-80
2022/03/25 00:57:31;;;;;;;13.35;5.15;;;;;;;10.88;22.69;94188.28;5023587;28;20084;-78
2022/03/25 00:59:56;;;;;;;11.95;5.18;;;;;;;10.85;22.78;94184.34;5023710;28;20026;-79
2022/03/25 01:02:22;;;;;;;9.75;4.43;;;;;;;10.84;22.69;94194.19;5023843;28;20097;-81
2022/03/25 01:04:48;;;;;;;13.23;4.88;;;;;;;10.84;22.32;94177.41;5023686;28;20374;-80
2022/03/25 01:07:14;;;;;;;8.48;5.00;;;;;;;10.86;22.81;94196.56;5024016;28;20032;-80
2022/03/25 01:09:40;;;;;;;8.98;4.20;;;;;;;10.82;22.78;94182.28;5023462;28;20026;-80
2022/03/25 01:12:06;;;;;;;12.90;4.57;;;;;;;10.82;22.79;94185.72;5023519;28;20269;-79
2022/03/25 01:14:32;;;;;;;15.90;4.55;;;;;;;10.78;22.78;94184.75;5023589;28;20085;-80
2022/03/25 01:16:58;;;;;;;8.43;4.20;;;;;;;10.74;22.83;94183.03;5023537;28;20029;-80
2022/03/25 01:19:27;;;;;;;12.07;5.43;;;;;;;10.73;22.92;94179.56;5023433;28;20080;-78
2022/03/25 01:21:56;;;;;;;17.85;5.35;;;;;;;10.68;22.93;94194.91;5023452;28;20030;-80
2022/03/25 01:24:22;;;;;;;11.32;4.80;;;;;;;10.63;22.93;94187.81;5023576;28;20028;-80
2022/03/25 01:26:48;;;;;;;18.38;6.25;;;;;;;10.61;23.23;94193.44;5023419;28;20072;-80
2022/03/25 01:29:14;;;;;;;8.15;5.00;;;;;;;10.60;23.18;94188.41;5023513;28;20324;-80
2022/03/25 01:31:39;;;;;;;9.80;4.70;;;;;;;10.55;22.78;94192.00;5023341;28;20093;-82
2022/03/25 01:34:05;;;;;;;15.82;4.70;;;;;;;10.57;23.27;94162.41;5023428;28;20108;-81
2022/03/25 01:36:31;;;;;;;11.85;5.20;;;;;;;10.59;23.02;94173.53;5023371;28;20029;-81
2022/03/25 01:38:58;;;;;;;13.23;5.63;;;;;;;10.55;23.17;94181.34;5023057;28;20106;-80
2022/03/25 01:41:23;;;;;;;12.98;4.82;;;;;;;10.52;23.22;94181.97;5023293;28;20227;-80
2022/03/25 01:43:57;;;;;;;17.50;5.10;;;;;;;10.51;23.55;94183.03;5023340;28;20029;-80
2022/03/25 01:46:24;;;;;;;12.38;5.00;;;;;;;10.54;22.92;94184.31;5022968;28;20026;-79
2022/03/25 01:48:50;;;;;;;11.77;4.90;;;;;;;10.55;22.97;94186.69;5023158;28;20033;-78
2022/03/25 01:51:19;;;;;;;16.35;5.00;;;;;;;10.60;22.87;94199.91;5022858;28;20070;-79
2022/03/25 01:53:47;;;;;;;10.23;5.28;;;;;;;10.66;22.92;94199.75;5023172;28;20026;-79
2022/03/25 01:56:18;;;;;;;10.82;4.82;;;;;;;10.65;22.59;94190.97;5023119;28;20339;-79
2022/03/25 01:58:43;;;;;;;12.02;5.50;;;;;;;10.64;23.10;94206.19;5023088;28;20075;-80
2022/03/25 02:01:09;;;;;;;17.42;5.53;;;;;;;10.58;22.98;94203.94;5022966;28;20025;-80
2022/03/25 02:03:34;;;;;;;16.23;5.65;;;;;;;10.53;22.89;94188.84;5023013;28;20084;-80
2022/03/25 02:06:00;;;;;;;11.32;5.30;;;;;;;10.50;22.68;94189.47;5023070;28;20067;-80
2022/03/25 02:08:25;;;;;;;22.88;5.53;;;;;;;10.52;23.34;94189.97;5022836;28;20018;-80
2022/03/25 02:10:51;;;;;;;10.43;5.00;;;;;;;10.45;23.08;94186.94;5023079;28;20029;-80
2022/03/25 02:13:16;;;;;;;10.10;4.93;;;;;;;10.40;23.19;94190.50;5022992;28;20045;-79
2022/03/25 02:15:43;;;;;;;9.43;4.85;;;;;;;10.36;23.04;94192.22;5022986;28;20401;-80
2022/03/25 02:18:12;;;;;;;15.00;5.68;;;;;;;10.34;23.00;94189.06;5022777;28;20100;-80
2022/03/25 02:20:38;;;;;;;11.82;5.10;;;;;;;10.34;23.19;94188.25;5022897;28;20025;-79
2022/03/25 02:23:05;;;;;;;14.40;5.03;;;;;;;10.39;23.44;94188.13;5022701;28;20030;-80
2022/03/25 02:25:31;;;;;;;17.75;5.43;;;;;;;10.30;22.96;94190.75;5022808;28;20059;-81
2022/03/25 02:28:03;;;;;;;9.70;5.03;;;;;;;10.31;22.89;94183.53;5022943;28;20030;-81
2022/03/25 02:30:29;;;;;;;10.55;5.10;;;;;;;10.30;23.02;94184.63;5022513;28;20026;-81
2022/03/25 02:33:01;;;;;;;13.23;5.38;;;;;;;10.32;23.05;94166.44;5022593;28;20101;-81
2022/03/25 02:35:40;;;;;;;14.05;6.15;;;;;;;10.28;23.19;94176.09;5022578;28;20050;-80
2022/03/25 02:38:08;;;;;;;12.07;4.88;;;;;;;10.31;23.15;94176.31;5022582;28;20046;-80
2022/03/25 02:40:33;;;;;;;15.45;5.65;;;;;;;10.24;23.19;94174.06;5022734;28;20040;-81
2022/03/25 02:42:59;;;;;;;13.57;5.20;;;;;;;10.24;23.42;94173.28;5025190;28;20026;-81
2022/03/25 02:45:24;;;;;;;13.95;5.35;;;;;;;10.24;23.38;94187.38;5026170;28;20025;-81
2022/03/25 02:47:50;;;;;;;12.35;5.30;;;;;;;10.28;23.08;94170.78;5008598;28;20363;-80
2022/03/25 02:50:16;;;;;;;11.32;5.70;;;;;;;10.25;23.49;94167.63;5026345;28;20025;-80
2022/03/25 02:52:42;;;;;;;12.77;5.57;;;;;;;10.28;23.18;94176.09;5026173;28;20049;-79
2022/03/25 02:55:12;;;;;;;12.60;5.93;;;;;;;10.27;23.12;94164.66;5025937;28;20030;-79
2022/03/25 02:57:38;;;;;;;12.70;6.47;;;;;;;10.27;22.99;94170.00;5025968;28;20284;-79
2022/03/25 03:00:09;;;;;;;13.57;5.85;;;;;;;10.31;22.87;94170.22;5026067;28;20025;-79
2022/03/25 03:02:36;;;;;;;16.55;5.40;;;;;;;10.28;23.39;94171.59;5025872;28;20033;-81
2022/03/25 03:05:02;;;;;;;16.33;5.35;;;;;;;10.25;23.12;94170.28;5008333;28;20033;-78
2022/03/25 03:07:28;;;;;;;15.93;5.00;;;;;;;10.20;23.18;94165.09;5025826;28;20024;-79
2022/03/25 03:09:54;;;;;;;9.10;5.03;;;;;;;10.25;23.31;94172.97;5025713;28;20215;-79
2022/03/25 03:12:20;;;;;;;18.52;5.20;;;;;;;10.25;23.00;94172.19;5025379;28;20037;-79
2022/03/25 03:14:46;;;;;;;10.10;5.50;;;;;;;10.28;22.91;94168.13;5025739;28;20022;-79
2022/03/25 03:17:12;;;;;;;11.38;5.47;;;;;;;10.26;22.81;94181.75;5025863;28;20033;-80
2022/03/25 03:19:38;;;;;;;14.75;5.55;;;;;;;10.29;22.98;94183.03;5025655;28;20028;-79
2022/03/25 03:22:03;;;;;;;13.40;5.70;;;;;;;10.32;22.92;94177.09;5025533;28;20220;-79
2022/03/25 03:24:29;;;;;;;10.70;5.75;;;;;;;10.30;23.15;94173.97;5025677;28;20021;-79
2022/03/25 03:26:54;;;;;;;10.18;5.22;;;;;;;10.32;23.00;94177.09;5025662;28;20026;-79
2022/03/25 03:29:20;;;;;;;10.75;5.68;;;;;;;10.37;23.03;94180.44;5025591;28;20424;-78
2022/03/25 03:31:46;;;;;;;13.73;6.03;;;;;;;10.38;22.78;94171.38;5025454;28;20025;-78
2022/03/25 03:34:12;;;;;;;13.20;6.28;;;;;;;10.33;22.75;94190.13;5025564;28;20137;-80
2022/03/25 03:36:38;;;;;;;16.48;5.70;;;;;;;10.35;22.88;94173.84;5025420;28;20035;-81
2022/03/25 03:39:03;;;;;;;10.45;5.90;;;;;;;10.38;22.74;94191.88;5025205;28;20030;-81
2022/03/25 03:41:29;;;;;;;13.13;5.90;;;;;;;10.42;22.69;94188.31;5025391;28;20045;-81
2022/03/25 03:43:55;;;;;;;20.10;6.40;;;;;;;10.43;22.81;94178.44;5025297;28;20065;-81
2022/03/25 03:46:20;;;;;;;12.82;6.05;;;;;;;10.41;23.00;94176.09;5007628;28;20071;-80
2022/03/25 03:48:45;;;;;;;13.10;6.20;;;;;;;10.33;22.82;94178.69;5025135;28;20023;-80
2022/03/25 03:51:11;;;;;;;12.32;5.55;;;;;;;10.33;22.88;94182.13;5025020;28;20256;-80
2022/03/25 03:53:37;;;;;;;15.15;8.02;;;;;;;10.34;23.16;94182.91;5023981;28;20035;-79
2022/03/25 03:56:03;;;;;;;11.45;5.40;;;;;;;10.22;22.97;94181.56;5024925;28;20247;-78
2022/03/25 03:58:28;;;;;;;19.92;7.05;;;;;;;10.19;23.34;94179.50;5024781;28;20038;-78
2022/03/25 04:00:54;;;;;;;13.82;5.68;;;;;;;10.12;23.08;94187.13;5024737;28;20030;-79
2022/03/25 04:03:19;;;;;;;12.75;6.00;;;;;;;10.15;23.16;94175.88;5024827;28;20093;-79
2022/03/25 04:05:45;;;;;;;12.32;6.10;;;;;;;10.14;23.21;94187.63;5024824;28;20032;-78
2022/03/25 04:08:13;;;;;;;11.95;5.22;;;;;;;10.12;23.34;94187.13;5024752;28;20263;-79
2022/03/25 04:10:39;;;;;;;14.82;6.18;;;;;;;10.07;23.65;94181.91;5024750;28;20030;-79
2022/03/25 04:13:05;;;;;;;15.82;6.38;;;;;;;10.08;23.77;94191.50;5024799;28;20090;-79
2022/03/25 04:15:31;;;;;;;13.70;5.57;;;;;;;10.02;23.60;94188.16;5024637;28;20049;-79
2022/03/25 04:17:56;;;;;;;10.52;5.97;;;;;;;9.98;23.77;94179.19;5024290;28;20320;-79
2022/03/25 04:20:22;;;;;;;14.13;6.20;;;;;;;9.93;23.80;94186.50;5024704;28;20072;-79
2022/03/25 04:22:47;;;;;;;11.15;5.40;;;;;;;9.91;23.64;94204.66;5024488;28;20217;-79
2022/03/25 04:25:13;;;;;;;12.32;6.25;;;;;;;9.92;23.92;94192.91;5024719;28;20095;-80
2022/03/25 04:27:56;;;;;;;13.38;5.38;;;;;;;9.89;23.58;94189.00;5024378;28;20017;-80
2022/03/25 04:30:26;;;;;;;14.00;6.13;;;;;;;9.97;23.89;94203.44;5024186;28;20048;-80
2022/03/25 04:32:52;;;;;;;11.73;6.03;;;;;;;9.93;23.83;94183.84;5024162;28;20212;-81
2022/03/25 04:35:19;;;;;;;17.05;6.55;;;;;;;9.88;23.73;94186.63;5024360;28;20028;-81
2022/03/25 04:37:44;;;;;;;13.98;6.03;;;;;;;9.88;23.72;94187.41;5024234;28;20026;-80
2022/03/25 04:40:15;;;;;;;13.65;5.50;;;;;;;9.84;23.85;94200.53;5023878;28;20063;-79
2022/03/25 04:42:41;;;;;;;13.27;6.15;;;;;;;9.88;23.90;94200.72;5024215;28;20025;-78
2022/03/25 04:45:07;;;;;;;11.77;5.53;;;;;;;9.83;23.79;94185.66;5024072;28;20033;-80
2022/03/25 04:47:32;;;;;;;14.05;5.60;;;;;;;9.87;23.75;94199.16;5024233;28;20093;-78
2022/03/25 04:49:58;;;;;;;12.30;5.70;;;;;;;9.93;23.63;94183.84;5023849;28;20320;-79
2022/03/25 04:52:23;;;;;;;11.15;5.70;;;;;;;9.93;23.61;94175.84;5023902;28;20046;-79
2022/03/25 04:54:49;;;;;;;12.40;6.43;;;;;;;9.97;24.17;94190.13;5024042;28;20067;-78
2022/03/25 04:57:14;;;;;;;12.45;5.80;;;;;;;10.06;23.69;94200.88;5023827;28;20312;-78
2022/03/25 04:59:39;;;;;;;14.65;6.40;;;;;;;10.03;23.68;94202.25;5023729;28;20207;-78
2022/03/25 05:02:05;;;;;;;15.38;6.55;;;;;;;10.07;23.69;94197.88;5023647;28;20105;-79
2022/03/25 05:04:30;;;;;;;11.07;5.97;;;;;;;10.10;23.81;94201.84;5023362;28;20045;-79
2022/03/25 05:06:56;;;;;;;13.20;6.78;;;;;;;10.09;23.44;94195.72;5023752;28;20025;-79
2022/03/25 05:09:21;;;;;;;16.40;6.65;;;;;;;10.18;23.43;94196.59;5023429;28;20013;-77
2022/03/25 05:11:47;;;;;;;12.60;5.97;;;;;;;10.23;23.62;94207.09;5023513;28;20037;-77
2022/03/25 05:14:14;;;;;;;12.18;6.35;;;;;;;10.23;23.38;94204.44;5006039;28;20021;-76
2022/03/25 05:16:39;;;;;;;14.85;5.93;;;;;;;10.31;23.48;94202.19;5023555;28;20100;-76
2022/03/25 05:19:05;;;;;;;12.90;6.13;;;;;;;10.29;23.40;94201.69;5023196;28;20311;-77
2022/03/25 05:21:30;;;;;;;14.77;6.63;;;;;;;10.31;23.26;94215.50;5023531;28;20021;-75
2022/03/25 05:23:55;;;;;;;13.98;6.25;;;;;;;10.42;23.06;94204.31;5023356;28;20101;-75
2022/03/25 05:26:21;;;;;;;14.63;5.63;;;;;;;10.46;23.12;94209.81;5023199;28;20220;-75
2022/03/25 05:28:46;;;;;;;15.82;6.75;;;;;;;10.49;22.92;94222.53;5023164;28;20052;-76
2022/03/25 05:31:12;;;;;;;13.43;6.93;;;;;;;10.55;22.88;94212.56;5023561;28;20021;-76
2022/03/25 05:33:38;;;;;;;10.52;6.53;;;;;;;10.59;23.27;94208.97;5023277;28;20034;-77
2022/03/25 05:36:04;;;;;;;12.60;6.15;;;;;;;10.66;24.57;94207.75;5023259;28;20025;-74
2022/03/25 05:38:32;;;;;;;20.48;7.47;;;;;;;10.75;23.24;94205.94;5022752;28;20029;-74
2022/03/25 05:40:58;;;;;;;13.85;6.43;;;;;;;10.70;22.84;94217.50;5023089;28;20052;-72
2022/03/25 05:43:23;;;;;;;16.45;7.07;;;;;;;10.74;22.47;94215.00;5023190;28;20026;-75
2022/03/25 05:45:49;;;;;;;13.20;6.53;;;;;;;10.70;22.62;94203.38;5023389;28;20081;-76
2022/03/25 05:48:14;;;;;;;10.50;5.88;;;;;;;10.70;22.73;94208.72;5023139;28;20022;-76
2022/03/25 05:50:40;;;;;;;13.95;6.65;;;;;;;10.79;22.74;94214.91;5022884;28;20061;-76
2022/03/25 05:53:05;;;;;;;21.90;7.03;;;;;;;10.87;22.52;94213.34;5023095;28;20041;-72
2022/03/25 05:55:32;;;;;;;17.65;6.80;;;;;;;10.94;22.34;94206.50;5023108;28;20076;-72
2022/03/25 05:57:57;;;;;;;16.95;8.60;;;;;;;11.05;22.23;94207.00;5022561;28;20033;-72
2022/03/25 06:00:23;;;;;;;28.13;7.40;;;;;;;11.18;22.40;94208.03;5022711;28;20224;-72
2022/03/25 06:02:48;;;;;;;22.70;7.15;;;;;;;11.24;22.06;94217.47;5022655;28;20334;-74
2022/03/25 06:05:14;;;;;;;13.35;7.15;;;;;;;11.27;22.41;94229.41;5023022;28;20056;-74
2022/03/25 06:07:42;;;;;;;16.30;6.68;;;;;;;11.27;22.00;94226.72;5022785;28;20199;-71
2022/03/25 06:10:10;;;;;;;15.77;7.57;;;;;;;11.37;22.39;94219.22;5022683;28;20026;-71
2022/03/25 06:12:36;;;;;;;15.32;7.22;;;;;;;11.32;21.77;94219.38;5022829;28;20335;-71
2022/03/25 06:15:02;;;;;;;18.83;7.63;;;;;;;11.26;22.19;94219.84;5022739;28;20021;-71
2022/03/25 06:17:28;;;;;;;17.73;6.90;;;;;;;11.28;22.27;94213.09;5024335;28;20105;-71
2022/03/25 06:19:53;;;;;;;22.58;7.97;;;;;;;11.28;21.69;94222.97;5026718;28;20040;-71
2022/03/25 06:22:19;;;;;;;18.23;7.90;;;;;;;11.42;21.97;94224.44;5026938;28;20029;-71
2022/03/25 06:24:44;;;;;;;17.80;7.63;;;;;;;11.54;22.13;94220.38;5009253;28;20038;-71
2022/03/25 06:27:10;;;;;;;19.98;7.63;;;;;;;11.60;21.68;94235.16;5026513;28;20032;-72
2022/03/25 06:29:37;;;;;;;18.42;7.50;;;;;;;11.60;21.47;94235.16;5026715;28;20104;-72
2022/03/25 06:32:07;;;;;;;16.15;7.13;;;;;;;11.59;21.66;94229.03;5026586;28;20025;-73
2022/03/25 06:34:33;;;;;;;17.33;7.60;;;;;;;11.60;21.47;94235.97;5026539;28;20030;-73
2022/03/25 06:36:59;;;;;;;21.77;8.25;;;;;;;11.60;21.90;94235.16;5026315;28;20275;-73
2022/03/25 06:39:24;;;;;;;18.55;9.55;;;;;;;11.72;21.40;94235.34;5026362;28;20347;-72
2022/03/25 06:41:49;;;;;;;21.92;9.43;;;;;;;11.74;21.87;94232.38;5026378;28;20026;-72
2022/03/25 06:44:16;;;;;;;17.63;8.43;;;;;;;11.65;21.46;94233.13;5026533;28;20025;-73
2022/03/25 06:46:41;;;;;;;20.23;9.75;;;;;;;11.64;21.83;94233.44;5026382;28;20026;-74
2022/03/25 06:49:07;;;;;;;19.35;9.18;;;;;;;11.72;21.70;94242.56;5026474;28;20090;-72
2022/03/25 06:51:33;;;;;;;23.02;8.65;;;;;;;11.80;22.40;94242.59;5026179;28;20049;-72
2022/03/25 06:53:59;;;;;;;22.02;9.73;;;;;;;11.80;21.83;94237.25;5026190;28;20069;-72
2022/03/25 06:56:25;;;;;;;17.67;9.13;;;;;;;11.91;21.88;94239.69;5008490;28;20041;-72
2022/03/25 06:58:52;;;;;;;19.65;9.38;;;;;;;11.91;22.12;94234.34;5026091;28;20093;-72
2022/03/25 07:01:18;;;;;;;18.52;9.05;;;;;;;11.95;21.98;94245.97;5026208;28;20033;-72
2022/03/25 07:03:43;;;;;;;22.58;10.05;;;;;;;11.94;22.13;94234.47;5026125;28;20227;-73
2022/03/25 07:06:09;;;;;;;17.55;8.70;;;;;;;12.01;22.17;94248.19;5026128;28;20101;-73
2022/03/25 07:09:17;;;;;;;17.05;9.57;;;;;;;12.06;22.18;94244.56;5024776;28;20407;-72
2022/03/25 07:11:43;;;;;;;29.15;8.68;;;;;;;12.09;22.10;94241.28;4944575;29;20039;-72
2022/03/25 07:14:08;;;;;;;22.75;9.30;;;;;;;12.03;22.32;94251.31;4944946;29;20103;-73
2022/03/25 07:16:33;;;;;;;22.02;9.15;;;;;;;12.10;22.61;94250.84;4982076;28;20041;-72
2022/03/25 07:19:02;;;;;;;21.45;8.80;;;;;;;12.12;22.21;94251.31;5024451;28;20092;-72
2022/03/25 07:21:28;;;;;;;15.15;8.55;;;;;;;12.15;22.30;94252.56;5024355;28;20022;-73
2022/03/25 07:23:53;;;;;;;22.92;8.60;;;;;;;12.15;22.28;94252.56;5025640;28;20028;-72
2022/03/25 07:26:19;;;;;;;18.50;8.40;;;;;;;12.23;22.43;94252.59;5025613;28;20223;-72
2022/03/25 07:28:44;;;;;;;16.48;8.80;;;;;;;12.31;22.10;94252.91;5025342;28;20041;-73
2022/03/25 07:31:10;;;;;;;17.83;9.73;;;;;;;12.15;21.96;94261.41;5025485;28;20026;-72
2022/03/25 07:33:36;;;;;;;16.90;8.80;;;;;;;12.10;22.30;94266.88;5025354;28;20318;-72
2022/03/25 07:36:01;;;;;;;18.50;9.57;;;;;;;12.06;22.48;94268.59;5025579;28;20097;-71
2022/03/25 07:38:28;;;;;;;21.42;9.60;;;;;;;12.04;22.42;94265.47;5025229;28;20045;-71
2022/03/25 07:40:54;;;;;;;26.20;10.05;;;;;;;12.16;22.48;94257.63;5025386;28;20084;-71
2022/03/25 07:43:20;;;;;;;16.65;9.15;;;;;;;12.19;22.20;94264.22;5025233;28;20018;-72
2022/03/25 07:45:45;;;;;;;24.40;11.40;;;;;;;12.28;22.77;94256.22;5025426;28;20197;-72
2022/03/25 07:48:11;;;;;;;23.05;9.65;;;;;;;12.30;22.64;94262.81;5024962;28;20026;-71
2022/03/25 07:50:37;;;;;;;19.65;8.85;;;;;;;12.38;22.03;94261.25;5007816;28;20026;-70
2022/03/25 07:53:02;;;;;;;28.20;9.82;;;;;;;12.36;22.28;94250.09;5025088;28;20271;-70
2022/03/25 07:55:28;;;;;;;17.75;8.15;;;;;;;12.29;22.52;94263.91;5024973;28;20021;-71
2022/03/25 07:57:54;;;;;;;17.85;9.80;;;;;;;12.38;22.06;94262.03;5025041;28;20022;-71
2022/03/25 08:00:19;;;;;;;21.48;9.85;;;;;;;12.39;21.88;94254.81;5024880;28;20025;-70
2022/03/25 08:02:47;;;;;;;25.83;9.35;;;;;;;12.30;21.95;94252.13;5025130;28;20026;-71
2022/03/25 08:05:14;;;;;;;16.30;8.43;;;;;;;12.24;22.25;94272.88;5024835;28;20022;-71
2022/03/25 08:07:52;;;;;;;19.50;9.23;;;;;;;12.38;22.30;94263.94;5024707;28;20018;-71
2022/03/25 08:10:28;;;;;;;36.85;9.30;;;;;;;12.52;22.43;94285.97;5024544;28;20318;-71
2022/03/25 08:12:54;;;;;;;20.35;9.13;;;;;;;12.50;21.86;94266.78;5024542;28;20026;-73
2022/03/25 08:15:21;;;;;;;33.70;10.90;;;;;;;12.42;22.28;94254.19;5024593;28;20022;-75
2022/03/25 08:17:57;;;;;;;28.70;10.02;;;;;;;12.49;22.09;94267.06;5007240;28;20022;-73
2022/03/25 08:20:26;;;;;;;15.43;8.05;;;;;;;12.44;22.61;94276.03;5025073;28;20070;-72
2022/03/25 08:22:53;;;;;;;27.98;8.77;;;;;;;12.42;22.15;94257.63;5007072;28;20072;-72
2022/03/25 08:28:03;;;;;;;17.58;8.70;;;;;;;12.55;22.33;94269.28;5024388;28;20405;-71
2022/03/25 08:30:30;;;;;;;23.50;9.23;;;;;;;12.58;22.03;94252.63;5024539;28;20038;-71
2022/03/25 08:32:57;;;;;;;20.17;8.27;;;;;;;12.58;21.92;94273.22;5024489;28;20220;-71
2022/03/25 08:35:22;;;;;;;38.08;10.65;;;;;;;12.65;22.31;94274.28;5024150;28;20347;-70
2022/03/25 08:37:48;;;;;;;32.63;9.45;;;;;;;12.60;21.68;94298.53;5023983;28;20021;-71
2022/03/25 08:40:13;;;;;;;36.08;9.63;;;;;;;12.54;22.06;94285.66;5023510;28;20018;-71
2022/03/25 08:42:39;;;;;;;17.17;8.27;;;;;;;12.60;22.11;94266.44;5024132;28;20045;-70
2022/03/25 08:45:05;;;;;;;23.50;8.65;;;;;;;12.71;22.16;94268.81;5024192;28;20092;-70
2022/03/25 08:47:31;;;;;;;13.60;7.97;;;;;;;12.92;22.13;94267.03;5006446;28;20335;-70
2022/03/25 08:49:56;;;;;;;22.92;8.23;;;;;;;12.81;21.49;94263.13;5024070;28;20025;-70
2022/03/25 08:52:22;;;;;;;41.55;9.85;;;;;;;12.87;21.67;94264.53;5023728;28;20060;-71
2022/03/25 08:54:48;;;;;;;17.40;7.93;;;;;;;12.85;21.27;94269.41;5023796;28;20039;-72
2022/03/25 08:57:13;;;;;;;29.60;8.68;;;;;;;12.85;21.23;94283.56;5023903;28;20025;-72
2022/03/25 08:59:39;;;;;;;34.35;8.80;;;;;;;12.74;21.88;94295.72;5023841;28;20373;-72
2022/03/25 09:02:04;;;;;;;16.85;7.50;;;;;;;12.86;21.80;94265.63;5023688;28;20049;-71
2022/03/25 09:04:30;;;;;;;21.63;8.18;;;;;;;12.99;21.37;94259.31;5023790;28;20026;-72
2022/03/25 09:06:56;;;;;;;24.00;7.97;;;;;;;13.00;21.41;94258.19;5023596;28;20038;-72
2022/03/25 09:09:21;;;;;;;20.23;7.78;;;;;;;13.03;21.14;94252.22;5023690;28;20033;-71
2022/03/25 09:11:47;;;;;;;17.25;8.02;;;;;;;13.01;21.54;94259.00;5023507;28;20088;-71
2022/03/25 09:14:14;;;;;;;16.92;7.93;;;;;;;13.15;22.00;94259.59;5023934;28;20097;-71
2022/03/25 09:16:40;;;;;;;15.05;7.53;;;;;;;13.28;21.02;94263.19;5023674;28;20033;-72
2022/03/25 09:19:05;;;;;;;23.88;8.57;;;;;;;13.16;20.74;94249.69;5023323;28;20204;-73
2022/03/25 09:21:31;;;;;;;16.05;7.70;;;;;;;13.19;21.23;94239.13;5023263;28;20025;-73
2022/03/25 09:23:57;;;;;;;14.48;6.18;;;;;;;13.23;20.71;94239.28;5023433;28;20033;-73
2022/03/25 09:26:25;;;;;;;19.55;8.35;;;;;;;13.22;20.87;94264.47;5023590;28;20053;-71
2022/03/25 09:28:51;;;;;;;19.85;7.65;;;;;;;13.36;20.72;94240.19;5023322;28;20094;-71
2022/03/25 09:31:16;;;;;;;25.88;8.38;;;;;;;13.47;21.03;94252.13;5023425;28;20034;-71
2022/03/25 09:33:42;;;;;;;20.92;7.03;;;;;;;13.54;20.54;94239.03;5023413;28;20026;-71
2022/03/25 09:36:07;;;;;;;18.85;7.75;;;;;;;13.53;20.16;94240.13;5023238;28;20334;-72
2022/03/25 09:38:33;;;;;;;14.85;6.53;;;;;;;13.55;20.20;94231.75;5023161;28;20236;-72
2022/03/25 09:41:03;;;;;;;15.48;7.45;;;;;;;13.54;20.15;94251.63;5023248;28;20041;-71
2022/03/25 09:43:29;;;;;;;20.63;6.60;;;;;;;13.41;19.76;94250.72;5023358;28;20032;-70
2022/03/25 09:45:54;;;;;;;13.43;6.85;;;;;;;13.45;19.80;94251.66;5023056;28;20022;-71
2022/03/25 09:48:19;;;;;;;12.38;6.40;;;;;;;13.54;19.87;94224.84;5023140;28;20030;-72
2022/03/25 09:50:45;;;;;;;14.00;6.07;;;;;;;13.79;19.74;94228.50;5023000;28;20025;-71
2022/03/25 09:53:11;;;;;;;24.27;7.32;;;;;;;13.70;19.37;94225.06;5022910;28;20026;-71
2022/03/25 09:55:54;;;;;;;21.50;7.35;;;;;;;13.89;19.42;94238.06;5023126;28;20067;-71
2022/03/25 09:58:21;;;;;;;21.50;6.72;;;;;;;14.01;19.39;94230.88;5023106;28;20026;-71
2022/03/25 10:00:49;;;;;;;10.35;5.95;;;;;;;14.13;18.44;94243.59;5022954;28;20228;-70
2022/03/25 10:03:22;;;;;;;15.55;6.97;;;;;;;13.97;18.16;94224.59;5022892;28;20032;-71
2022/03/25 10:05:59;;;;;;;16.30;7.45;;;;;;;14.04;18.62;94240.16;5022739;28;20271;-70
2022/03/25 10:08:30;;;;;;;14.00;6.20;;;;;;;14.17;18.39;94233.78;5022700;28;20061;-71
2022/03/25 10:10:55;;;;;;;12.52;6.38;;;;;;;14.11;18.30;94261.09;5022606;28;20021;-71
2022/03/25 10:13:20;;;;;;;13.32;5.82;;;;;;;14.10;18.11;94225.47;5022836;28;20220;-70
2022/03/25 10:15:46;;;;;;;17.92;6.00;;;;;;;14.08;17.95;94219.63;5022829;28;20036;-70
2022/03/25 10:18:11;;;;;;;13.25;5.53;;;;;;;14.09;18.07;94226.59;5022596;28;20093;-71
2022/03/25 10:20:39;;;;;;;11.55;6.55;;;;;;;14.23;17.77;94227.13;5022715;28;20033;-70
2022/03/25 10:23:09;;;;;;;13.57;6.07;;;;;;;14.23;17.60;94215.63;5005256;28;20030;-71
2022/03/25 10:25:44;;;;;;;10.07;5.65;;;;;;;14.09;17.21;94236.53;5022475;28;20289;-70
2022/03/25 10:28:36;;;;;;;10.55;5.70;;;;;;;14.21;17.38;94218.63;5022646;28;20020;-70
2022/03/25 10:31:14;;;;;;;10.60;4.82;;;;;;;14.23;17.40;94213.72;5022766;28;20030;-70
2022/03/25 10:33:52;;;;;;;10.77;4.50;;;;;;;14.15;16.96;94198.47;5022574;28;20026;-69
2022/03/25 10:36:20;;;;;;;10.52;5.32;;;;;;;14.25;16.92;94206.13;5022641;28;20057;-71
2022/03/25 10:38:49;;;;;;;19.58;5.47;;;;;;;14.36;17.10;94205.72;5022407;28;20085;-69
2022/03/25 10:41:18;;;;;;;18.80;5.82;;;;;;;14.51;17.65;94199.78;5022722;28;20030;-69
2022/03/25 10:43:51;;;;;;;15.45;5.47;;;;;;;14.47;16.96;94198.88;5022704;28;20049;-70
2022/03/25 10:46:41;;;;;;;11.23;5.18;;;;;;;14.55;16.95;94197.19;5022598;28;20040;-70
2022/03/25 10:49:15;;;;;;;12.85;5.32;;;;;;;14.56;17.15;94210.31;5022442;28;20450;-69
2022/03/25 10:51:43;;;;;;;13.73;5.78;;;;;;;14.59;16.97;94201.63;5022241;28;20169;-69
2022/03/25 10:54:11;;;;;;;14.45;5.88;;;;;;;14.69;16.94;94191.59;5022032;28;20101;-69
2022/03/25 10:56:48;;;;;;;11.70;5.40;;;;;;;14.76;16.69;94211.41;5022355;28;20371;-70
2022/03/25 10:59:25;;;;;;;10.30;4.43;;;;;;;14.58;17.02;94188.53;5022040;28;20220;-70
2022/03/25 11:01:52;;;;;;;12.45;5.38;;;;;;;14.52;16.60;94208.59;5022200;28;20029;-70
2022/03/25 11:04:19;;;;;;;12.13;5.38;;;;;;;14.58;16.63;94193.91;5025139;28;20033;-71
2022/03/25 11:06:45;;;;;;;13.65;4.97;;;;;;;14.56;16.55;94190.75;5026070;28;20284;-71
2022/03/25 11:09:13;;;;;;;10.27;6.18;;;;;;;14.79;16.64;94193.84;5025804;28;20093;-71
2022/03/25 11:11:41;;;;;;;10.30;5.20;;;;;;;14.75;16.50;94187.56;5025803;28;20056;-70
2022/03/25 11:14:08;;;;;;;9.55;5.20;;;;;;;14.68;16.32;94187.34;5025629;28;20336;-72
2022/03/25 11:16:36;;;;;;;10.52;5.18;;;;;;;14.75;16.90;94177.63;5025643;28;20037;-71
2022/03/25 11:19:01;;;;;;;8.70;5.03;;;;;;;14.79;16.31;94193.84;5025540;28;20030;-70
2022/03/25 11:21:27;;;;;;;13.48;5.03;;;;;;;14.86;16.46;94196.78;5025667;28;20029;-71
2022/03/25 11:23:56;;;;;;;17.60;4.85;;;;;;;14.68;16.25;94172.03;5025701;28;20028;-70
2022/03/25 11:26:25;;;;;;;11.07;4.95;;;;;;;14.81;17.06;94176.28;5025389;28;20022;-71
2022/03/25 11:29:00;;;;;;;8.98;4.95;;;;;;;14.89;16.15;94171.97;5025336;28;20022;-71